Time;durP1;ratioP1;P1;durP2;ratioP2;P2;SDS_P1;SDS_P2;PMS_P1;PMS_P2;Temp;Humidity;BMP_temperature;BMP_pressure;BME280_temperature;BME280_humidity;BME280_pressure;Samples;Min_cycle;Max_cycle;Signal;HPM_P1;HPM_P2
2021/10/02 10:05:14;;;;;;;9.15;6.35;;;;;;;;;;4913428;29;20116;-80
2021/10/02 10:07:40;;;;;;;10.85;6.80;;;;;;;;;;4913574;29;20571;-72
2021/10/02 10:10:11;;;;;;;7.72;6.00;;;;;;;;;;4914826;29;20039;-72
2021/10/02 10:12:40;;;;;;;9.50;7.60;;;;;;;;;;4915399;29;20409;-70
2021/10/02 10:15:25;;;;;;;8.98;4.55;;;;;;;;;;4914613;29;20059;-71
2021/10/02 10:17:51;;;;;;;10.30;6.57;;;;;;;;;;4914850;29;20071;-73
2021/10/02 10:20:16;;;;;;;8.38;6.10;;;;;;;;;;4914850;29;20070;-72
2021/10/02 10:22:41;;;;;;;8.23;5.57;;;;;;;;;;4907349;29;20040;-73
2021/10/02 10:25:11;;;;;;;9.63;5.38;;;;;;;;;;4915024;29;20040;-74
2021/10/02 10:27:45;;;;;;;8.73;5.65;;;;;;;;;;4913565;29;20122;-71
2021/10/02 10:30:17;;;;;;;6.65;5.25;;;;;;;;;;4915005;29;20125;-72
2021/10/02 10:33:01;;;;;;;7.97;4.38;;;;;;;;;;4914945;29;20127;-73
2021/10/02 10:35:30;;;;;;;10.15;6.60;;;;;;;;;;4914799;29;20462;-72
2021/10/02 10:37:55;;;;;;;7.80;4.72;;;;;;;;;;4897517;29;20040;-74
2021/10/02 10:40:21;;;;;;;9.40;5.95;;;;;;;;;;4914686;29;20040;-72
2021/10/02 10:42:47;;;;;;;9.80;5.10;;;;;;;;;;4914841;29;20035;-72
2021/10/02 10:45:13;;;;;;;7.50;5.57;;;;;;;;;;4913370;29;20075;-72
2021/10/02 10:47:39;;;;;;;7.38;6.63;;;;;;;;;;4913755;29;20270;-71
2021/10/02 10:50:04;;;;;;;8.10;5.25;;;;;;;;;;4914769;29;20405;-71
2021/10/02 10:52:38;;;;;;;8.10;5.80;;;;;;;;;;4914568;29;20055;-71
2021/10/02 10:55:14;;;;;;;6.85;5.38;;;;;;;;;;4914511;29;20040;-71
2021/10/02 10:57:45;;;;;;;6.47;5.50;;;;;;;;;;4914750;29;20043;-71
2021/10/02 11:00:31;;;;;;;13.15;6.43;;;;;;;;;;4914826;29;20060;-74
2021/10/02 11:03:03;;;;;;;9.82;5.82;;;;;;;;;;4914764;29;20036;-72
2021/10/02 11:05:35;;;;;;;8.32;5.50;;;;;;;;;;4914771;29;20040;-74
2021/10/02 11:08:04;;;;;;;10.68;7.10;;;;;;;;;;4914489;29;20096;-74
2021/10/02 11:10:44;;;;;;;8.07;5.07;;;;;;;;;;4915085;29;20043;-73
2021/10/02 11:13:20;;;;;;;6.55;5.10;;;;;;;;;;4915262;29;20135;-73
2021/10/02 11:15:47;;;;;;;;;;;;;;;;;;4898062;29;20457;-73
2021/10/02 11:18:46;;;;;;;6.75;4.90;;;;;;;;;;4914892;29;19938;-75
2021/10/02 11:21:18;;;;;;;11.20;5.75;;;;;;;;;;4914874;29;20103;-72
2021/10/02 11:24:08;;;;;;;9.15;5.30;;;;;;;;;;4914803;29;20033;-74
2021/10/02 11:26:41;;;;;;;9.20;5.55;;;;;;;;;;4914771;29;20039;-71
2021/10/02 11:29:28;;;;;;;8.38;5.93;;;;;;;;;;4915264;29;20142;-73
2021/10/02 11:32:20;;;;;;;12.05;6.05;;;;;;;;;;4914434;29;20044;-71
2021/10/02 11:35:08;;;;;;;7.07;6.38;;;;;;;;;;4914787;29;20493;-73
2021/10/02 11:37:43;;;;;;;7.90;6.03;;;;;;;;;;4917566;29;20066;-71
2021/10/02 11:40:42;;;;;;;;;;;;;;;;;;4918421;29;20068;-71
2021/10/02 11:43:17;;;;;;;;;;;;;;;;;;4918356;29;19925;-72
2021/10/02 11:45:45;;;;;;;6.97;5.70;;;;;;;;;;4900808;29;19918;-71
2021/10/02 11:48:19;;;;;;;10.35;4.65;;;;;;;;;;4918164;29;20044;-75
2021/10/02 11:50:48;;;;;;;8.75;5.70;;;;;;;;;;4917990;29;20032;-72
2021/10/02 11:53:13;;;;;;;8.43;5.30;;;;;;;;;;4917656;29;20048;-71
2021/10/02 11:55:42;;;;;;;7.87;5.93;;;;;;;;;;4917890;29;20042;-71
2021/10/02 11:58:07;;;;;;;7.72;6.93;;;;;;;;;;4917790;29;20276;-70
2021/10/02 12:00:53;;;;;;;8.85;6.32;;;;;;;;;;4917130;29;20040;-69
2021/10/02 12:03:31;;;;;;;7.03;5.65;;;;;;;;;;4917271;29;20040;-70
2021/10/02 12:05:59;;;;;;;9.63;5.82;;;;;;;;;;4917208;29;20051;-71
2021/10/02 12:08:25;;;;;;;7.63;5.25;;;;;;;;;;4917346;29;20079;-71
2021/10/02 12:11:10;;;;;;;8.80;5.70;;;;;;;;;;4916933;29;20071;-71
2021/10/02 12:13:49;;;;;;;14.25;8.30;;;;;;;;;;4917055;29;20043;-70
2021/10/02 12:16:20;;;;;;;8.15;6.20;;;;;;;;;;4917125;29;20075;-72
2021/10/02 12:19:08;;;;;;;8.70;7.78;;;;;;;;;;4916375;29;20468;-70
2021/10/02 12:21:38;;;;;;;9.30;6.88;;;;;;;;;;4916208;29;20036;-71
2021/10/02 12:24:06;;;;;;;9.45;7.00;;;;;;;;;;4916543;29;20043;-71
2021/10/02 12:26:46;;;;;;;14.20;6.47;;;;;;;;;;4916632;29;20489;-71
2021/10/02 12:29:13;;;;;;;12.10;5.82;;;;;;;;;;4917184;29;20032;-71
2021/10/02 12:32:05;;;;;;;10.43;6.00;;;;;;;;;;4917393;29;20047;-71
2021/10/02 12:34:54;;;;;;;7.68;6.03;;;;;;;;;;4908799;29;20044;-74
2021/10/02 12:37:22;;;;;;;8.80;6.70;;;;;;;;;;4916795;29;20564;-72
2021/10/02 12:39:54;;;;;;;8.65;6.35;;;;;;;;;;4916938;29;20036;-74
2021/10/02 12:42:37;;;;;;;9.73;6.40;;;;;;;;;;4916949;29;20048;-72
2021/10/02 12:45:12;;;;;;;9.00;6.82;;;;;;;;;;4916571;29;20047;-72
2021/10/02 12:47:38;;;;;;;11.50;6.80;;;;;;;;;;4898608;29;20040;-71
2021/10/02 12:50:08;;;;;;;10.95;6.38;;;;;;;;;;4899719;29;20028;-72
2021/10/02 12:52:34;;;;;;;7.57;5.75;;;;;;;;;;4916381;29;20039;-71
2021/10/02 12:55:00;;;;;;;8.82;6.63;;;;;;;;;;4915928;29;20493;-71
2021/10/02 12:57:34;;;;;;;8.98;7.28;;;;;;;;;;4899328;29;20409;-71
2021/10/02 13:00:08;;;;;;;11.40;5.35;;;;;;;;;;4899676;29;20042;-72
2021/10/02 13:02:41;;;;;;;10.90;7.05;;;;;;;;;;4916477;29;20068;-71
2021/10/02 13:05:07;;;;;;;12.27;6.38;;;;;;;;;;4916297;29;20123;-72
2021/10/02 13:07:35;;;;;;;6.70;5.70;;;;;;;;;;4915818;29;20084;-71
2021/10/02 13:10:13;;;;;;;6.72;5.00;;;;;;;;;;4916197;29;20516;-71
2021/10/02 13:12:43;;;;;;;10.35;6.93;;;;;;;;;;4916244;29;20055;-72
2021/10/02 13:15:28;;;;;;;7.60;5.03;;;;;;;;;;4916499;29;20040;-71
2021/10/02 13:18:01;;;;;;;9.43;6.57;;;;;;;;;;4915881;29;20028;-73
2021/10/02 13:20:27;;;;;;;8.23;5.97;;;;;;;;;;4915814;29;20036;-72
2021/10/02 13:22:52;;;;;;;10.35;6.95;;;;;;;;;;4916414;29;20079;-72
2021/10/02 13:25:24;;;;;;;9.65;6.63;;;;;;;;;;4915960;29;20493;-72
2021/10/02 13:27:53;;;;;;;11.20;6.95;;;;;;;;;;4915761;29;20036;-72
2021/10/02 13:30:29;;;;;;;11.85;8.45;;;;;;;;;;4915706;29;20414;-72
2021/10/02 13:33:06;;;;;;;15.50;9.77;;;;;;;;;;4915852;29;20044;-72
2021/10/02 13:35:38;;;;;;;9.93;6.75;;;;;;;;;;4915800;29;20038;-72
2021/10/02 13:38:06;;;;;;;9.30;6.53;;;;;;;;;;4915682;29;20047;-70
2021/10/02 13:40:36;;;;;;;11.68;7.32;;;;;;;;;;4915620;29;20031;-71
2021/10/02 13:43:03;;;;;;;13.57;8.43;;;;;;;;;;4915916;29;20040;-71
2021/10/02 13:45:34;;;;;;;19.00;11.73;;;;;;;;;;4915751;29;20436;-69
2021/10/02 13:48:08;;;;;;;9.90;6.35;;;;;;;;;;4916173;29;20048;-69
2021/10/02 13:50:35;;;;;;;9.77;6.43;;;;;;;;;;4916146;29;20055;-71
2021/10/02 13:53:01;;;;;;;12.88;6.72;;;;;;;;;;4915990;29;20099;-70
2021/10/02 13:55:28;;;;;;;9.48;7.63;;;;;;;;;;4915647;29;20039;-69
2021/10/02 13:57:54;;;;;;;12.13;7.28;;;;;;;;;;4915519;29;20131;-68
2021/10/02 14:00:20;;;;;;;10.68;6.25;;;;;;;;;;4915350;29;20064;-71
2021/10/02 14:02:45;;;;;;;8.88;6.22;;;;;;;;;;4915847;29;20519;-70
2021/10/02 14:05:11;;;;;;;11.13;6.90;;;;;;;;;;4915968;29;20032;-69
2021/10/02 14:07:37;;;;;;;10.50;8.88;;;;;;;;;;4915550;29;20470;-70
2021/10/02 14:10:03;;;;;;;12.30;5.70;;;;;;;;;;4898865;29;20067;-70
2021/10/02 14:12:30;;;;;;;9.07;6.68;;;;;;;;;;4915719;29;20083;-71
2021/10/02 14:14:56;;;;;;;12.02;6.65;;;;;;;;;;4915724;29;20067;-68
2021/10/02 14:17:22;;;;;;;9.75;6.65;;;;;;;;;;4915443;29;20063;-70
2021/10/02 14:19:47;;;;;;;11.80;6.72;;;;;;;;;;4898381;29;20549;-70
2021/10/02 14:22:13;;;;;;;10.07;6.72;;;;;;;;;;4915598;29;20036;-73
2021/10/02 14:24:38;;;;;;;10.48;6.65;;;;;;;;;;4915851;29;20040;-68
2021/10/02 14:27:04;;;;;;;11.23;6.78;;;;;;;;;;4915145;29;20127;-71
2021/10/02 14:29:29;;;;;;;9.35;6.28;;;;;;;;;;4915323;29;20103;-67
2021/10/02 14:31:55;;;;;;;10.25;6.13;;;;;;;;;;4915391;29;20039;-70
2021/10/02 14:34:20;;;;;;;8.95;5.95;;;;;;;;;;4915178;29;20040;-69
2021/10/02 14:36:46;;;;;;;13.85;7.22;;;;;;;;;;4915000;29;20055;-70
2021/10/02 14:39:11;;;;;;;15.63;8.45;;;;;;;;;;4915173;29;20054;-68
2021/10/02 14:41:36;;;;;;;13.82;7.15;;;;;;;;;;4915166;29;20040;-69
2021/10/02 14:44:04;;;;;;;12.00;7.03;;;;;;;;;;4915301;29;20042;-69
2021/10/02 14:46:30;;;;;;;13.63;7.10;;;;;;;;;;4915053;29;20071;-69
2021/10/02 14:48:55;;;;;;;11.43;8.52;;;;;;;;;;4914994;29;20461;-68
2021/10/02 14:51:23;;;;;;;10.18;6.45;;;;;;;;;;4898018;29;20036;-71
2021/10/02 14:53:51;;;;;;;9.98;7.07;;;;;;;;;;4897890;29;20533;-68
2021/10/02 14:56:17;;;;;;;11.05;7.30;;;;;;;;;;4915029;29;20494;-69
2021/10/02 14:58:46;;;;;;;12.32;7.38;;;;;;;;;;4915016;29;20040;-71
2021/10/02 15:01:12;;;;;;;9.90;7.57;;;;;;;;;;4898110;29;20159;-70
2021/10/02 15:03:44;;;;;;;10.63;6.38;;;;;;;;;;4915399;29;20122;-71
2021/10/02 15:06:10;;;;;;;13.27;6.93;;;;;;;;;;4914959;29;20101;-69
2021/10/02 15:08:37;;;;;;;11.88;7.68;;;;;;;;;;4915071;29;20044;-69
2021/10/02 15:11:02;;;;;;;10.45;6.97;;;;;;;;;;4918061;29;20044;-69
2021/10/02 15:13:28;;;;;;;11.00;7.53;;;;;;;;;;4918940;29;20036;-71
2021/10/02 15:15:58;;;;;;;11.73;6.72;;;;;;;;;;4919050;29;20047;-70
2021/10/02 15:18:24;;;;;;;14.52;7.10;;;;;;;;;;4918623;29;20127;-69
2021/10/02 15:20:55;;;;;;;13.68;6.85;;;;;;;;;;4918635;29;20063;-69
2021/10/02 15:23:25;;;;;;;9.25;7.30;;;;;;;;;;4917200;29;20138;-67
2021/10/02 15:25:55;;;;;;;11.68;7.68;;;;;;;;;;4918474;29;20048;-69
2021/10/02 15:28:23;;;;;;;12.50;7.95;;;;;;;;;;4917130;29;20089;-69
2021/10/02 15:30:54;;;;;;;13.55;8.77;;;;;;;;;;4901211;29;20508;-70
2021/10/02 15:33:20;;;;;;;13.18;9.52;;;;;;;;;;4918400;29;20036;-69
2021/10/02 15:35:49;;;;;;;15.60;10.55;;;;;;;;;;4918153;29;20036;-69
2021/10/02 15:38:17;;;;;;;17.00;9.77;;;;;;;;;;4918300;29;20036;-69
2021/10/02 15:40:44;;;;;;;19.08;9.75;;;;;;;;;;4901306;29;20028;-71
2021/10/02 15:43:12;;;;;;;13.82;8.63;;;;;;;;;;4918475;29;20040;-68
2021/10/02 15:45:43;;;;;;;14.25;8.20;;;;;;;;;;4917872;29;20078;-68
2021/10/02 15:48:09;;;;;;;11.18;7.93;;;;;;;;;;4900626;29;20044;-70
2021/10/02 15:50:34;;;;;;;9.63;7.30;;;;;;;;;;4917934;29;20486;-70
2021/10/02 15:53:00;;;;;;;15.63;9.13;;;;;;;;;;4917998;29;20501;-70
2021/10/02 15:55:25;;;;;;;11.77;8.85;;;;;;;;;;4917941;29;20108;-69
2021/10/02 15:57:56;;;;;;;12.95;8.20;;;;;;;;;;4917881;29;20074;-68
2021/10/02 16:00:23;;;;;;;14.85;9.48;;;;;;;;;;4900677;29;20032;-69
2021/10/02 16:02:58;;;;;;;17.98;9.52;;;;;;;;;;4917976;29;20040;-70
2021/10/02 16:05:34;;;;;;;17.13;11.10;;;;;;;;;;4917828;29;20035;-68
2021/10/02 16:08:05;;;;;;;17.20;12.63;;;;;;;;;;4917509;29;20573;-69
2021/10/02 16:10:33;;;;;;;17.13;10.48;;;;;;;;;;4917732;29;20046;-71
2021/10/02 16:13:06;;;;;;;11.70;8.10;;;;;;;;;;4918002;29;20051;-69
2021/10/02 16:15:35;;;;;;;13.35;10.02;;;;;;;;;;4917473;29;20040;-71
2021/10/02 16:18:04;;;;;;;12.77;10.38;;;;;;;;;;4917716;29;20067;-69
2021/10/02 16:20:31;;;;;;;12.50;9.90;;;;;;;;;;4917464;29;20076;-70
2021/10/02 16:22:58;;;;;;;13.20;10.45;;;;;;;;;;4916856;29;20409;-69
2021/10/02 16:25:26;;;;;;;12.55;8.63;;;;;;;;;;4918331;29;20119;-70
2021/10/02 16:27:52;;;;;;;15.02;8.20;;;;;;;;;;4917530;29;20040;-70
2021/10/02 16:30:19;;;;;;;14.00;9.38;;;;;;;;;;4917776;29;20044;-69
2021/10/02 16:32:44;;;;;;;16.73;9.32;;;;;;;;;;4917928;29;20036;-71
2021/10/02 16:35:10;;;;;;;11.13;8.30;;;;;;;;;;4917699;29;20494;-68
2021/10/02 16:37:36;;;;;;;13.52;7.80;;;;;;;;;;4917496;29;20032;-70
2021/10/02 16:40:08;;;;;;;12.70;8.05;;;;;;;;;;4917311;29;20516;-69
2021/10/02 16:42:34;;;;;;;12.77;9.45;;;;;;;;;;4917227;29;20044;-69
2021/10/02 16:44:59;;;;;;;13.75;9.95;;;;;;;;;;4917840;29;20067;-69
2021/10/02 16:47:25;;;;;;;14.05;9.55;;;;;;;;;;4917260;29;20140;-71
2021/10/02 16:49:50;;;;;;;12.45;8.80;;;;;;;;;;4917641;29;20043;-68
2021/10/02 16:52:17;;;;;;;17.33;9.48;;;;;;;;;;4917450;29;20092;-69
2021/10/02 16:54:43;;;;;;;11.82;7.95;;;;;;;;;;4917280;29;20036;-68
2021/10/02 16:57:08;;;;;;;11.50;10.20;;;;;;;;;;4916961;29;20363;-68
2021/10/02 16:59:37;;;;;;;14.95;9.00;;;;;;;;;;4917062;29;20044;-69
2021/10/02 17:02:02;;;;;;;12.85;10.05;;;;;;;;;;4917140;29;20063;-69
2021/10/02 17:04:28;;;;;;;13.25;8.77;;;;;;;;;;4917089;29;20078;-69
2021/10/02 17:06:53;;;;;;;12.43;8.85;;;;;;;;;;4916765;29;20063;-70
2021/10/02 17:09:20;;;;;;;11.82;7.78;;;;;;;;;;4916645;29;20509;-69
2021/10/02 17:11:46;;;;;;;11.18;8.73;;;;;;;;;;4899727;29;20485;-67
2021/10/02 17:14:12;;;;;;;14.63;9.30;;;;;;;;;;4916776;29;20036;-69
2021/10/02 17:16:37;;;;;;;13.32;7.60;;;;;;;;;;4916741;29;20463;-70
2021/10/02 17:19:02;;;;;;;13.20;6.60;;;;;;;;;;4916552;29;20036;-69
2021/10/02 17:21:28;;;;;;;13.85;7.65;;;;;;;;;;4899279;29;20537;-69
2021/10/02 17:23:53;;;;;;;11.43;6.80;;;;;;;;;;4916569;29;20087;-69
2021/10/02 17:26:19;;;;;;;11.43;7.47;;;;;;;;;;4916793;29;20057;-68
2021/10/02 17:28:44;;;;;;;10.45;7.75;;;;;;;;;;4916401;29;20127;-71
2021/10/02 17:31:10;;;;;;;13.07;8.98;;;;;;;;;;4917124;29;20480;-70
2021/10/02 17:33:35;;;;;;;11.32;7.97;;;;;;;;;;4915915;29;20126;-68
2021/10/02 17:36:02;;;;;;;13.15;8.30;;;;;;;;;;4916256;29;20036;-69
2021/10/02 17:38:27;;;;;;;13.25;8.30;;;;;;;;;;4916351;29;20044;-69
2021/10/02 17:40:53;;;;;;;12.82;8.50;;;;;;;;;;4916224;29;20039;-69
2021/10/02 17:43:22;;;;;;;12.25;8.73;;;;;;;;;;4916203;29;20036;-69
2021/10/02 17:45:48;;;;;;;12.43;8.38;;;;;;;;;;4916160;29;20485;-70
2021/10/02 17:48:14;;;;;;;12.48;8.68;;;;;;;;;;4915990;29;20122;-71
2021/10/02 17:50:39;;;;;;;14.55;10.02;;;;;;;;;;4916273;29;20474;-70
2021/10/02 17:53:08;;;;;;;14.05;9.15;;;;;;;;;;4916196;29;20398;-70
2021/10/02 17:55:34;;;;;;;18.45;10.45;;;;;;;;;;4898726;29;20390;-68
2021/10/02 17:57:59;;;;;;;14.38;9.05;;;;;;;;;;4916034;29;20052;-70
2021/10/02 18:00:29;;;;;;;16.52;9.70;;;;;;;;;;4916224;29;20118;-67
2021/10/02 18:02:56;;;;;;;14.50;9.02;;;;;;;;;;4916176;29;20464;-70
2021/10/02 18:05:22;;;;;;;11.82;10.60;;;;;;;;;;4915911;29;20413;-69
2021/10/02 18:07:48;;;;;;;11.70;7.70;;;;;;;;;;4915506;29;20060;-69
2021/10/02 18:10:14;;;;;;;13.35;7.63;;;;;;;;;;4915880;29;20043;-69
2021/10/02 18:12:41;;;;;;;13.15;8.95;;;;;;;;;;4915865;29;20040;-70
2021/10/02 18:15:08;;;;;;;15.30;9.32;;;;;;;;;;4898731;29;20119;-68
2021/10/02 18:17:33;;;;;;;12.10;7.82;;;;;;;;;;4916026;29;20036;-68
2021/10/02 18:19:58;;;;;;;13.02;8.65;;;;;;;;;;4915889;29;20047;-69
2021/10/02 18:22:27;;;;;;;12.25;8.45;;;;;;;;;;4914495;29;20040;-69
2021/10/02 18:24:53;;;;;;;14.63;8.02;;;;;;;;;;4915761;29;20097;-68
2021/10/02 18:29:47;;;;;;;11.85;7.95;;;;;;;;;;4915814;29;20055;-68
2021/10/02 18:32:13;;;;;;;13.45;8.40;;;;;;;;;;4915897;29;20032;-71
2021/10/02 18:34:38;;;;;;;10.90;7.60;;;;;;;;;;4915887;29;20044;-69
2021/10/02 18:37:04;;;;;;;10.85;7.55;;;;;;;;;;4915424;29;20041;-68
2021/10/02 18:39:30;;;;;;;12.77;8.55;;;;;;;;;;4915541;29;20071;-69
2021/10/02 18:41:55;;;;;;;13.10;8.65;;;;;;;;;;4915412;29;20490;-68
2021/10/02 18:44:20;;;;;;;13.13;8.10;;;;;;;;;;4915292;29;20477;-70
2021/10/02 18:46:46;;;;;;;12.32;8.48;;;;;;;;;;4915459;29;20031;-69
2021/10/02 18:49:12;;;;;;;16.13;7.57;;;;;;;;;;4915424;29;20044;-67
2021/10/02 18:51:37;;;;;;;10.30;7.07;;;;;;;;;;4898318;29;20111;-68
2021/10/02 18:54:03;;;;;;;13.88;9.20;;;;;;;;;;4915326;29;20087;-69
2021/10/02 18:56:30;;;;;;;15.05;8.95;;;;;;;;;;4915173;29;20039;-68
2021/10/02 18:58:56;;;;;;;15.02;7.88;;;;;;;;;;4915398;29;20072;-69
2021/10/02 19:01:22;;;;;;;13.90;7.90;;;;;;;;;;4915292;29;20536;-71
2021/10/02 19:03:47;;;;;;;13.15;8.95;;;;;;;;;;4915504;29;20036;-70
2021/10/02 19:06:13;;;;;;;14.43;8.60;;;;;;;;;;4915177;29;20059;-69
2021/10/02 19:08:40;;;;;;;15.35;12.05;;;;;;;;;;4915630;29;20375;-70
2021/10/02 19:11:07;;;;;;;13.23;9.10;;;;;;;;;;4915259;29;20399;-70
2021/10/02 19:13:32;;;;;;;13.88;9.52;;;;;;;;;;4897601;29;20453;-73
2021/10/02 19:15:58;;;;;;;12.07;7.68;;;;;;;;;;4915106;29;20091;-72
2021/10/02 19:18:23;;;;;;;12.35;8.93;;;;;;;;;;4914942;29;20083;-70
2021/10/02 19:20:48;;;;;;;15.32;10.55;;;;;;;;;;4914553;29;20044;-72
2021/10/02 19:23:16;;;;;;;15.30;9.80;;;;;;;;;;4914808;29;20724;-71
2021/10/02 19:25:41;;;;;;;15.57;9.68;;;;;;;;;;4897805;29;20032;-71
2021/10/02 19:28:07;;;;;;;17.80;10.00;;;;;;;;;;4914494;29;20061;-70
2021/10/02 19:30:33;;;;;;;14.23;9.68;;;;;;;;;;4914478;29;20043;-71
2021/10/02 19:32:59;;;;;;;14.23;9.70;;;;;;;;;;4903944;29;20060;-71
2021/10/02 19:35:26;;;;;;;14.02;8.38;;;;;;;;;;4912485;29;20510;-71
2021/10/02 19:37:51;;;;;;;13.18;8.20;;;;;;;;;;4914622;29;20029;-71
2021/10/02 19:40:17;;;;;;;12.30;8.20;;;;;;;;;;4913440;29;20044;-70
2021/10/02 19:42:43;;;;;;;12.00;8.02;;;;;;;;;;4914583;29;20038;-71
2021/10/02 19:45:09;;;;;;;14.57;9.27;;;;;;;;;;4914158;29;20142;-70
2021/10/02 19:47:37;;;;;;;11.23;8.43;;;;;;;;;;4913952;29;20173;-71
2021/10/02 19:50:03;;;;;;;14.07;8.77;;;;;;;;;;4896682;29;20490;-69
2021/10/02 19:52:29;;;;;;;13.18;8.48;;;;;;;;;;4913926;29;20040;-70
2021/10/02 19:54:54;;;;;;;14.25;8.50;;;;;;;;;;4914130;29;20040;-71
2021/10/02 19:57:20;;;;;;;17.98;12.25;;;;;;;;;;4916599;29;20390;-69
2021/10/02 19:59:46;;;;;;;13.93;9.13;;;;;;;;;;4917996;29;20557;-72
2021/10/02 20:02:12;;;;;;;18.45;11.05;;;;;;;;;;4917311;29;20075;-69
2021/10/02 20:04:38;;;;;;;18.42;12.27;;;;;;;;;;4899950;29;20040;-71
2021/10/02 20:07:05;;;;;;;16.83;12.80;;;;;;;;;;4916159;29;20067;-71
2021/10/02 20:09:31;;;;;;;15.75;10.82;;;;;;;;;;4916574;29;20520;-71
2021/10/02 20:11:58;;;;;;;11.13;7.65;;;;;;;;;;4899817;29;20067;-71
2021/10/02 20:14:23;;;;;;;12.07;9.25;;;;;;;;;;4917165;29;20409;-70
2021/10/02 20:16:50;;;;;;;15.23;8.27;;;;;;;;;;4917391;29;20036;-70
2021/10/02 20:19:16;;;;;;;11.38;7.93;;;;;;;;;;4917132;29;20040;-70
2021/10/02 20:21:42;;;;;;;14.32;8.02;;;;;;;;;;4917285;29;20040;-72
2021/10/02 20:24:07;;;;;;;12.30;11.00;;;;;;;;;;4917051;29;20440;-69
2021/10/02 20:26:33;;;;;;;10.95;7.43;;;;;;;;;;4916447;29;20121;-72
2021/10/02 20:28:59;;;;;;;10.77;7.38;;;;;;;;;;4913329;29;20235;-71
2021/10/02 20:31:28;;;;;;;10.85;7.85;;;;;;;;;;4916868;29;20031;-70
2021/10/02 20:33:56;;;;;;;9.77;7.65;;;;;;;;;;4916198;29;20036;-71
2021/10/02 20:36:23;;;;;;;13.55;8.25;;;;;;;;;;4898561;29;20032;-75
2021/10/02 20:38:48;;;;;;;15.95;7.95;;;;;;;;;;4917452;29;20075;-69
2021/10/02 20:41:15;;;;;;;13.93;7.38;;;;;;;;;;4916504;29;20063;-71
2021/10/02 20:43:44;;;;;;;12.38;8.00;;;;;;;;;;4897890;29;20050;-70
2021/10/02 20:46:10;;;;;;;11.98;7.57;;;;;;;;;;4917053;29;20044;-71
2021/10/02 20:48:36;;;;;;;12.57;8.23;;;;;;;;;;4916346;29;20722;-71
2021/10/02 20:51:02;;;;;;;13.68;7.15;;;;;;;;;;4915987;29;20111;-69
2021/10/02 20:53:27;;;;;;;9.80;7.95;;;;;;;;;;4917084;29;20051;-70
2021/10/02 20:55:53;;;;;;;11.48;7.80;;;;;;;;;;4916644;29;20043;-69
2021/10/02 20:58:20;;;;;;;16.55;10.60;;;;;;;;;;4915963;29;20359;-71
2021/10/02 21:00:46;;;;;;;10.77;7.53;;;;;;;;;;4916443;29;20059;-70
2021/10/02 21:03:12;;;;;;;10.65;8.40;;;;;;;;;;4916532;29;20425;-73
2021/10/02 21:05:39;;;;;;;13.60;7.68;;;;;;;;;;4899033;29;20028;-68
2021/10/02 21:08:06;;;;;;;13.90;8.50;;;;;;;;;;4915386;29;20044;-70
2021/10/02 21:10:33;;;;;;;11.98;7.53;;;;;;;;;;4916420;29;20043;-68
2021/10/02 21:12:59;;;;;;;11.00;7.57;;;;;;;;;;4916458;29;20519;-70
2021/10/02 21:15:25;;;;;;;12.93;7.60;;;;;;;;;;4915868;29;20040;-68
2021/10/02 21:17:51;;;;;;;12.48;7.60;;;;;;;;;;4899287;29;20036;-69
2021/10/02 21:20:18;;;;;;;11.88;7.63;;;;;;;;;;4916365;29;20158;-69
2021/10/02 21:22:43;;;;;;;9.27;6.72;;;;;;;;;;4915662;29;20067;-67
2021/10/02 21:25:11;;;;;;;12.07;8.10;;;;;;;;;;4915805;29;20080;-68
2021/10/02 21:27:38;;;;;;;11.20;7.45;;;;;;;;;;4915660;29;20040;-70
2021/10/02 21:30:10;;;;;;;14.95;8.05;;;;;;;;;;4915575;29;20043;-70
2021/10/02 21:32:36;;;;;;;13.65;8.43;;;;;;;;;;4915201;29;20044;-70
2021/10/02 21:35:02;;;;;;;13.38;8.88;;;;;;;;;;4915246;29;20126;-70
2021/10/02 21:37:28;;;;;;;13.88;7.70;;;;;;;;;;4915559;29;20531;-68
2021/10/02 21:39:53;;;;;;;21.05;11.77;;;;;;;;;;4898842;29;20047;-70
2021/10/02 21:42:19;;;;;;;19.00;12.75;;;;;;;;;;4915831;29;20058;-68
2021/10/02 21:44:45;;;;;;;25.05;15.95;;;;;;;;;;4915495;29;20426;-71
2021/10/02 21:47:12;;;;;;;18.63;12.75;;;;;;;;;;4915662;29;20438;-70
2021/10/02 21:49:37;;;;;;;16.23;13.45;;;;;;;;;;4916749;29;20048;-79
2021/10/02 21:52:03;;;;;;;22.15;13.50;;;;;;;;;;4918009;29;20123;-79
2021/10/02 21:54:32;;;;;;;15.60;8.57;;;;;;;;;;4916945;29;20065;-84
2021/10/02 21:57:01;;;;;;;16.88;10.40;;;;;;;;;;4918036;29;20040;-82
2021/10/02 21:59:35;;;;;;;15.95;8.80;;;;;;;;;;4899657;29;20078;-81
2021/10/02 22:02:02;;;;;;;12.00;8.95;;;;;;;;;;4900385;29;20035;-78
2021/10/02 22:04:28;;;;;;;16.60;7.30;;;;;;;;;;4902268;29;20043;-80
2021/10/02 22:06:54;;;;;;;14.73;8.00;;;;;;;;;;4917600;29;20055;-77
2021/10/02 22:09:21;;;;;;;12.18;7.18;;;;;;;;;;4918143;29;20039;-79
2021/10/02 22:11:49;;;;;;;13.38;8.63;;;;;;;;;;4917933;29;20504;-80
2021/10/02 22:14:17;;;;;;;12.35;6.80;;;;;;;;;;4918768;29;20405;-80
2021/10/02 22:16:51;;;;;;;14.98;10.60;;;;;;;;;;4916237;29;20036;-79
2021/10/02 22:19:19;;;;;;;11.27;7.95;;;;;;;;;;4901056;29;20494;-80
2021/10/02 22:21:45;;;;;;;14.98;11.32;;;;;;;;;;4900040;29;20044;-82
2021/10/02 22:24:15;;;;;;;13.63;9.60;;;;;;;;;;4917154;29;20032;-80
2021/10/02 22:27:01;;;;;;;;;;;;;;;;;;4916821;29;20067;-80
2021/10/02 22:29:30;;;;;;;12.93;10.20;;;;;;;;;;4915361;29;19918;-81
2021/10/02 22:31:57;;;;;;;15.13;8.27;;;;;;;;;;4916197;29;20063;-81
2021/10/02 22:34:23;;;;;;;12.27;7.30;;;;;;;;;;4915943;29;20062;-81
2021/10/02 22:36:48;;;;;;;11.57;7.78;;;;;;;;;;4898617;29;20545;-79
2021/10/02 22:39:16;;;;;;;11.35;6.85;;;;;;;;;;4916359;29;20036;-82
2021/10/02 22:41:42;;;;;;;10.68;7.97;;;;;;;;;;4899390;29;20059;-80
2021/10/02 22:44:09;;;;;;;10.52;9.43;;;;;;;;;;4916098;29;20120;-80
2021/10/02 22:46:36;;;;;;;11.18;7.43;;;;;;;;;;4916084;29;20123;-80
2021/10/02 22:49:04;;;;;;;10.70;7.82;;;;;;;;;;4915990;29;20040;-81
2021/10/02 22:51:35;;;;;;;11.85;7.90;;;;;;;;;;4916784;29;20044;-81
2021/10/02 22:54:03;;;;;;;9.68;6.55;;;;;;;;;;4917091;29;20091;-80
2021/10/02 22:56:29;;;;;;;12.00;7.75;;;;;;;;;;4898963;29;20036;-81
2021/10/02 22:58:55;;;;;;;12.32;7.50;;;;;;;;;;4916101;29;20039;-81
2021/10/02 23:01:21;;;;;;;13.27;10.25;;;;;;;;;;4915787;29;20044;-79
2021/10/02 23:03:46;;;;;;;13.88;7.68;;;;;;;;;;4915704;29;20056;-78
2021/10/02 23:06:12;;;;;;;11.50;7.45;;;;;;;;;;4915749;29;20069;-81
2021/10/02 23:08:39;;;;;;;10.88;9.25;;;;;;;;;;4915365;29;20044;-81
2021/10/02 23:11:04;;;;;;;8.82;6.97;;;;;;;;;;4898603;29;20059;-80
2021/10/02 23:13:30;;;;;;;10.27;7.32;;;;;;;;;;4915502;29;20478;-78
2021/10/02 23:15:58;;;;;;;11.48;7.70;;;;;;;;;;4914970;29;20055;-79
2021/10/02 23:18:40;;;;;;;10.18;7.53;;;;;;;;;;4915084;29;20059;-79
2021/10/02 23:21:06;;;;;;;15.40;10.68;;;;;;;;;;4915378;29;20036;-79
2021/10/02 23:23:32;;;;;;;11.70;10.40;;;;;;;;;;4915015;29;20513;-78
2021/10/02 23:25:58;;;;;;;12.45;8.13;;;;;;;;;;4915173;29;20047;-79
2021/10/02 23:28:28;;;;;;;13.65;7.80;;;;;;;;;;4915151;29;20088;-81
2021/10/02 23:30:56;;;;;;;;;;;;;;;;;;4916892;29;20127;-79
2021/10/02 23:33:22;;;;;;;12.07;9.20;;;;;;;;;;4919086;29;20380;-80
2021/10/02 23:35:49;;;;;;;10.20;6.65;;;;;;;;;;4918914;29;20088;-78
2021/10/02 23:38:17;;;;;;;10.70;9.23;;;;;;;;;;4902694;29;20482;-80
2021/10/02 23:40:43;;;;;;;10.98;8.02;;;;;;;;;;4919949;29;20046;-78
2021/10/02 23:43:09;;;;;;;14.40;10.13;;;;;;;;;;4919503;29;20039;-79
2021/10/02 23:45:36;;;;;;;12.05;10.32;;;;;;;;;;4902732;29;20039;-78
2021/10/02 23:48:01;;;;;;;10.20;8.13;;;;;;;;;;4918919;29;20071;-80
2021/10/02 23:50:27;;;;;;;13.38;10.20;;;;;;;;;;4918514;29;20064;-79
2021/10/02 23:52:55;;;;;;;13.77;10.32;;;;;;;;;;4918607;29;20043;-80
2021/10/02 23:55:22;;;;;;;12.70;10.98;;;;;;;;;;4901179;29;20036;-80
2021/10/02 23:57:53;;;;;;;11.98;7.78;;;;;;;;;;4918501;29;20088;-78
